Terminal Aerodrome Forecast
Issued by NWS

Home | Current Version | Previous Version | Text Only | Print | Product List | Glossary On
Versions: 1 2 3 4 5 6 7 8 9 10 11 12 13 14 15 16 17 18 19 20 21 22 23
636
FTUS43 KIND 201720
TAFHUF
TAF
KHUF 201720Z 2018/2118 21007KT 4SM BR OVC003
     FM201900 21008KT 5SM BR OVC008
     FM202200 18006KT 5SM BR OVC010
     FM210100 15006KT 5SM BR OVC010
     FM210600 18008KT 5SM BR BKN010
     FM211000 18007KT 5SM BR BKN008
     FM211700 18010G18KT P6SM BKN035=

USA.gov is the U.S. government's official web portal to all federal, state and local government web resources and services.